Time;durP1;ratioP1;P1;durP2;ratioP2;P2;SDS_P1;SDS_P2;PMS_P1;PMS_P2;Temp;Humidity;BMP_temperature;BMP_pressure;BME280_temperature;BME280_humidity;BME280_pressure;Samples;Min_cycle;Max_cycle;Signal;HPM_P1;HPM_P2
2023/06/23 00:00:44;;;;;;;2.60;1.90;;;22.70;98.00;;;;;;5014001;28;20471;-68
2023/06/23 00:03:15;;;;;;;2.13;1.70;;;22.60;98.00;;;;;;5013787;28;21068;-68
2023/06/23 00:05:42;;;;;;;2.67;2.37;;;22.50;98.00;;;;;;5012625;28;20455;-67
2023/06/23 00:08:09;;;;;;;2.77;1.73;;;22.50;98.00;;;;;;5013729;28;20872;-67
2023/06/23 00:10:36;;;;;;;2.50;1.90;;;22.50;98.00;;;;;;5013843;28;20451;-68
2023/06/23 00:13:03;;;;;;;2.70;1.90;;;22.40;98.00;;;;;;5013692;28;20985;-67
2023/06/23 00:15:31;;;;;;;2.77;1.97;;;22.20;98.00;;;;;;5012568;28;20599;-68
2023/06/23 00:18:00;;;;;;;3.20;1.87;;;22.20;98.00;;;;;;5013723;28;20514;-68
2023/06/23 00:20:28;;;;;;;1.70;1.50;;;22.30;98.00;;;;;;5013738;28;20905;-67
2023/06/23 00:22:56;;;;;;;4.33;1.90;;;22.30;98.00;;;;;;5013633;28;20451;-68
2023/06/23 00:25:23;;;;;;;3.80;1.90;;;22.20;98.00;;;;;;5012394;28;20542;-68
2023/06/23 00:27:50;;;;;;;2.77;1.60;;;22.20;98.00;;;;;;5013659;28;20456;-68
2023/06/23 00:30:17;;;;;;;2.37;2.00;;;22.20;98.00;;;;;;5013809;28;20455;-68
2023/06/23 00:32:44;;;;;;;3.00;2.00;;;22.10;98.00;;;;;;5013692;28;20489;-67
2023/06/23 00:35:13;;;;;;;5.47;2.33;;;22.10;98.00;;;;;;5013759;28;20488;-68
2023/06/23 00:37:41;;;;;;;2.43;1.90;;;22.00;98.00;;;;;;5012124;28;20953;-68
2023/06/23 00:40:10;;;;;;;2.83;1.90;;;21.90;98.00;;;;;;5013168;28;20459;-68
2023/06/23 00:42:45;;;;;;;2.13;1.73;;;21.80;98.00;;;;;;5013285;28;21053;-68
2023/06/23 00:45:13;;;;;;;2.47;1.70;;;21.80;98.00;;;;;;5013097;28;20455;-69
2023/06/23 00:47:42;;;;;;;4.33;1.80;;;21.80;98.00;;;;;;5012862;28;20563;-67
2023/06/23 00:50:11;;;;;;;2.63;1.83;;;21.60;98.00;;;;;;5013053;28;20989;-67
2023/06/23 00:52:38;;;;;;;2.33;1.73;;;21.60;98.00;;;;;;5011744;28;20483;-68
2023/06/23 00:55:07;;;;;;;2.60;1.90;;;21.40;98.00;;;;;;5012906;28;20529;-68
2023/06/23 00:57:34;;;;;;;2.60;1.90;;;21.40;98.00;;;;;;5011604;28;20836;-68
2023/06/23 01:00:05;;;;;;;2.67;1.90;;;21.30;98.00;;;;;;5012922;28;20456;-68
2023/06/23 01:02:32;;;;;;;2.60;1.90;;;21.30;98.00;;;;;;5012138;28;20873;-68
2023/06/23 01:05:00;;;;;;;2.70;1.87;;;21.30;98.00;;;;;;5012768;28;20472;-68
2023/06/23 01:07:37;;;;;;;2.90;2.07;;;21.20;98.00;;;;;;5012840;28;20459;-67
2023/06/23 01:10:13;;;;;;;2.77;2.00;;;21.20;98.00;;;;;;5012885;28;20461;-67
2023/06/23 01:12:49;;;;;;;3.30;2.00;;;21.20;98.00;;;;;;5012769;28;20973;-68
2023/06/23 01:15:20;;;;;;;2.60;2.10;;;21.20;98.00;;;;;;5012843;28;20494;-68
2023/06/23 01:17:57;;;;;;;2.80;2.20;;;21.20;98.00;;;;;;5012774;28;20530;-68
2023/06/23 01:20:27;;;;;;;2.87;2.00;;;21.10;98.00;;;;;;5012792;28;20463;-68
2023/06/23 01:23:11;;;;;;;2.73;2.00;;;21.10;98.00;;;;;;5012759;28;20941;-68
2023/06/23 01:25:54;;;;;;;2.93;2.00;;;21.10;98.00;;;;;;5012673;28;20466;-68
2023/06/23 01:28:51;;;;;;;1.90;1.80;;;21.10;98.00;;;;;;5012822;28;20495;-67
2023/06/23 01:31:22;;;;;;;2.93;2.00;;;20.90;98.00;;;;;;4979045;28;20494;-68
2023/06/23 01:33:56;;;;;;;2.63;1.90;;;20.80;98.00;;;;;;5012464;28;20502;-67
2023/06/23 01:36:30;;;;;;;2.73;2.20;;;20.70;98.00;;;;;;5012174;28;20495;-68
2023/06/23 01:39:03;;;;;;;2.67;2.00;;;20.70;98.00;;;;;;5012294;28;20465;-67
2023/06/23 01:41:39;;;;;;;3.00;2.33;;;20.60;98.00;;;;;;5012201;28;20485;-68
2023/06/23 01:44:14;;;;;;;3.83;2.23;;;20.50;98.00;;;;;;5011207;28;20451;-67
2023/06/23 01:46:45;;;;;;;3.73;2.30;;;20.50;98.00;;;;;;5012191;28;20460;-69
2023/06/23 01:49:18;;;;;;;4.00;2.10;;;20.60;98.00;;;;;;5012127;28;20471;-68
2023/06/23 01:51:49;;;;;;;2.30;1.90;;;20.60;98.00;;;;;;5012512;28;21135;-69
2023/06/23 01:54:18;;;;;;;2.77;2.00;;;20.50;98.00;;;;;;5011043;28;20494;-69
2023/06/23 01:56:47;;;;;;;5.27;2.30;;;20.40;98.00;;;;;;5012112;28;20836;-69
2023/06/23 01:59:16;;;;;;;3.30;2.33;;;20.40;98.00;;;;;;5012160;28;20487;-67
2023/06/23 02:01:45;;;;;;;3.40;2.33;;;20.20;98.00;;;;;;5012078;28;20796;-69
2023/06/23 02:04:13;;;;;;;3.57;2.60;;;19.90;98.00;;;;;;5011100;28;20542;-68
2023/06/23 02:06:42;;;;;;;4.60;2.80;;;19.80;98.00;;;;;;5012025;28;20463;-67
2023/06/23 02:09:14;;;;;;;4.67;2.70;;;19.70;98.00;;;;;;5012156;28;20526;-68
2023/06/23 02:11:45;;;;;;;4.40;2.87;;;19.50;98.00;;;;;;5012170;28;20538;-68
2023/06/23 02:14:14;;;;;;;5.30;3.17;;;19.50;98.00;;;;;;5013619;28;20782;-68
2023/06/23 02:16:44;;;;;;;4.50;2.87;;;19.20;98.00;;;;;;5015939;28;20479;-67
2023/06/23 02:19:13;;;;;;;4.10;2.50;;;19.10;98.00;;;;;;5016438;28;20455;-68
2023/06/23 02:21:42;;;;;;;5.73;2.57;;;19.10;98.00;;;;;;5015867;28;20456;-67
2023/06/23 02:24:11;;;;;;;6.07;3.30;;;19.10;98.00;;;;;;5016192;28;20517;-68
2023/06/23 02:26:40;;;;;;;5.03;2.80;;;19.10;98.00;;;;;;5015863;28;20463;-68
2023/06/23 02:29:09;;;;;;;7.00;3.43;;;19.00;98.00;;;;;;5015857;28;20522;-68
2023/06/23 02:31:37;;;;;;;4.17;2.80;;;19.00;98.00;;;;;;5015552;28;20460;-67
2023/06/23 02:34:05;;;;;;;5.53;3.20;;;18.90;98.00;;;;;;5014394;28;20930;-67
2023/06/23 02:36:37;;;;;;;5.67;3.27;;;18.90;98.00;;;;;;5015441;28;20486;-67
2023/06/23 02:39:07;;;;;;;5.37;3.20;;;18.80;98.00;;;;;;5015449;28;20832;-67
2023/06/23 02:41:37;;;;;;;4.17;2.87;;;18.80;98.00;;;;;;5015603;28;20459;-67
2023/06/23 02:44:10;;;;;;;4.77;3.10;;;18.80;98.00;;;;;;5015631;28;20451;-68
2023/06/23 02:46:45;;;;;;;5.90;2.80;;;18.70;98.00;;;;;;5015396;28;20950;-68
2023/06/23 02:49:18;;;;;;;3.27;2.13;;;18.60;98.00;;;;;;5014266;28;20454;-68
2023/06/23 02:51:48;;;;;;;6.03;2.30;;;18.50;98.00;;;;;;5015359;28;20578;-68
2023/06/23 02:54:18;;;;;;;3.83;2.60;;;18.50;98.00;;;;;;5015400;28;20463;-68
2023/06/23 02:56:47;;;;;;;4.90;2.57;;;18.50;98.00;;;;;;5015189;28;20541;-69
2023/06/23 02:59:20;;;;;;;4.93;3.00;;;18.50;98.00;;;;;;5015375;28;20946;-67
2023/06/23 03:01:52;;;;;;;4.37;2.53;;;18.40;98.00;;;;;;5015218;28;20849;-67
2023/06/23 03:04:21;;;;;;;3.87;2.60;;;18.50;98.00;;;;;;5015349;28;20554;-68
2023/06/23 03:06:48;;;;;;;3.97;2.83;;;18.50;98.00;;;;;;5014741;28;20460;-67
2023/06/23 03:09:15;;;;;;;4.93;2.90;;;18.50;98.00;;;;;;5015396;28;20796;-69
2023/06/23 03:11:42;;;;;;;5.93;2.73;;;18.50;98.00;;;;;;5015293;28;20455;-68
2023/06/23 03:14:09;;;;;;;3.67;2.70;;;18.50;98.00;;;;;;5015192;28;20758;-68
2023/06/23 03:16:44;;;;;;;4.83;2.70;;;18.50;98.00;;;;;;5014921;28;20498;-68
2023/06/23 03:19:24;;;;;;;5.47;2.97;;;18.40;98.00;;;;;;5015268;28;20455;-68
2023/06/23 03:21:55;;;;;;;6.00;3.20;;;18.50;98.00;;;;;;5014867;28;20487;-67
2023/06/23 03:24:24;;;;;;;5.90;3.00;;;18.60;98.00;;;;;;5014849;28;20463;-68
2023/06/23 03:26:57;;;;;;;6.53;2.97;;;18.70;98.00;;;;;;5013717;28;20455;-68
2023/06/23 03:29:27;;;;;;;5.07;2.97;;;18.60;98.00;;;;;;5013954;28;20535;-67
2023/06/23 03:32:07;;;;;;;4.80;2.67;;;18.50;98.00;;;;;;5014455;28;20456;-67
2023/06/23 03:34:41;;;;;;;6.17;3.03;;;18.60;98.00;;;;;;5013437;28;20456;-67
2023/06/23 03:37:15;;;;;;;6.27;3.50;;;18.70;98.00;;;;;;5014499;28;20495;-68
2023/06/23 03:39:44;;;;;;;4.70;3.00;;;18.70;98.00;;;;;;5014357;28;20529;-67
2023/06/23 03:42:12;;;;;;;5.30;3.10;;;18.80;98.00;;;;;;5014400;28;20981;-68
2023/06/23 03:44:43;;;;;;;7.47;3.80;;;18.90;98.00;;;;;;5014601;28;20463;-68
2023/06/23 03:47:16;;;;;;;5.93;3.50;;;19.00;98.00;;;;;;5014327;28;20468;-68
2023/06/23 03:49:51;;;;;;;6.50;3.77;;;19.00;98.00;;;;;;5014503;28;20942;-67
2023/06/23 03:52:19;;;;;;;6.50;3.50;;;19.00;98.00;;;;;;5014515;28;20838;-68
2023/06/23 03:54:48;;;;;;;7.10;4.20;;;19.00;98.00;;;;;;5014395;28;20455;-68
2023/06/23 03:57:20;;;;;;;7.63;4.40;;;18.90;98.00;;;;;;5014202;28;20493;-67
2023/06/23 03:59:50;;;;;;;8.03;4.10;;;19.00;98.00;;;;;;5014050;28;20988;-68
2023/06/23 04:02:21;;;;;;;9.43;4.17;;;19.10;98.00;;;;;;5014187;28;20455;-69
2023/06/23 04:04:53;;;;;;;7.33;3.83;;;18.90;98.00;;;;;;5013799;28;20499;-69
2023/06/23 04:07:21;;;;;;;8.90;4.13;;;18.80;98.00;;;;;;5014463;28;20852;-69
2023/06/23 04:09:50;;;;;;;9.57;4.53;;;18.80;98.00;;;;;;5013166;28;20459;-68
2023/06/23 04:12:18;;;;;;;8.30;4.60;;;18.90;98.00;;;;;;5013025;28;20977;-67
2023/06/23 04:14:49;;;;;;;8.97;4.47;;;18.80;98.00;;;;;;5012880;28;20471;-67
2023/06/23 04:17:17;;;;;;;10.57;4.67;;;19.00;98.00;;;;;;5014069;28;20486;-67
2023/06/23 04:19:51;;;;;;;10.70;5.40;;;19.10;98.00;;;;;;5013318;28;20456;-68
2023/06/23 04:22:21;;;;;;;8.27;4.57;;;19.00;98.00;;;;;;5012766;28;20467;-67
2023/06/23 04:24:49;;;;;;;11.33;5.30;;;19.00;98.00;;;;;;5013464;28;20460;-68
2023/06/23 04:27:18;;;;;;;10.17;5.10;;;19.00;98.00;;;;;;5013699;28;20459;-68
2023/06/23 04:29:47;;;;;;;10.43;5.40;;;19.00;98.00;;;;;;5013279;28;20459;-68
2023/06/23 04:32:16;;;;;;;10.03;5.23;;;19.10;98.00;;;;;;5013647;28;20463;-67
2023/06/23 04:34:43;;;;;;;10.13;4.77;;;19.00;98.00;;;;;;5013588;28;20463;-68
2023/06/23 04:37:20;;;;;;;8.70;4.87;;;19.00;98.00;;;;;;5012684;28;20542;-68
2023/06/23 04:39:54;;;;;;;8.40;4.90;;;19.10;98.00;;;;;;5013157;28;20470;-68
2023/06/23 04:42:27;;;;;;;10.90;6.07;;;19.10;98.00;;;;;;5013105;28;20469;-67
2023/06/23 04:44:57;;;;;;;8.60;4.93;;;19.10;98.00;;;;;;5013172;28;20459;-67
2023/06/23 04:47:28;;;;;;;11.20;5.60;;;19.10;98.00;;;;;;5013134;28;20451;-68
2023/06/23 04:49:59;;;;;;;9.40;5.17;;;19.20;98.00;;;;;;5012997;28;20459;-67
2023/06/23 04:52:35;;;;;;;12.30;5.80;;;19.30;98.00;;;;;;5012665;28;20459;-67
2023/06/23 04:55:04;;;;;;;10.00;5.10;;;19.20;98.00;;;;;;5012387;28;20455;-68
2023/06/23 04:57:35;;;;;;;8.17;4.90;;;19.30;98.00;;;;;;5012243;28;20487;-67
2023/06/23 05:00:08;;;;;;;9.30;5.30;;;19.30;98.00;;;;;;5012382;28;20468;-67
2023/06/23 05:02:37;;;;;;;10.90;5.70;;;19.40;98.00;;;;;;5012129;28;20499;-68
2023/06/23 05:05:06;;;;;;;10.57;5.50;;;19.50;98.00;;;;;;5012374;28;20460;-67
2023/06/23 05:07:37;;;;;;;16.03;5.77;;;19.50;98.00;;;;;;5012393;28;20451;-67
2023/06/23 05:10:06;;;;;;;12.10;5.13;;;19.60;98.00;;;;;;5012514;28;20483;-68
2023/06/23 05:12:34;;;;;;;10.83;5.93;;;19.60;98.00;;;;;;5012378;28;20991;-68
2023/06/23 05:15:03;;;;;;;7.97;4.80;;;19.60;98.00;;;;;;5011541;28;20451;-68
2023/06/23 05:17:32;;;;;;;9.07;5.67;;;19.60;98.00;;;;;;5012676;28;20479;-67
2023/06/23 05:20:04;;;;;;;12.30;6.10;;;19.80;98.00;;;;;;5012920;28;20455;-66
2023/06/23 05:22:33;;;;;;;14.40;6.30;;;19.90;98.00;;;;;;5012756;28;20482;-68
2023/06/23 05:25:04;;;;;;;11.83;6.50;;;19.80;98.00;;;;;;5012571;28;20510;-67
2023/06/23 05:27:34;;;;;;;14.70;6.50;;;20.00;98.00;;;;;;5012189;28;20463;-67
2023/06/23 05:30:05;;;;;;;13.57;6.47;;;19.90;98.00;;;;;;5011290;28;20814;-66
2023/06/23 05:32:35;;;;;;;18.73;7.47;;;20.00;98.00;;;;;;5012468;28;20463;-67
2023/06/23 05:35:05;;;;;;;13.20;6.70;;;20.00;98.00;;;;;;5011112;28;20459;-67
2023/06/23 05:37:35;;;;;;;11.60;6.67;;;20.00;98.00;;;;;;5012114;28;20537;-67
2023/06/23 05:40:05;;;;;;;15.50;7.23;;;20.00;98.00;;;;;;5012177;28;20562;-67
2023/06/23 05:42:34;;;;;;;14.27;7.23;;;20.10;98.00;;;;;;5012320;28;20518;-67
2023/06/23 05:45:02;;;;;;;13.63;6.20;;;20.10;98.00;;;;;;5012346;28;20456;-67
2023/06/23 05:47:35;;;;;;;13.50;6.57;;;20.00;98.00;;;;;;5012159;28;20498;-68
2023/06/23 05:50:12;;;;;;;13.67;7.37;;;20.00;98.00;;;;;;5011991;28;20464;-68
2023/06/23 05:52:47;;;;;;;18.60;7.37;;;20.00;98.00;;;;;;5012139;28;20504;-67
2023/06/23 05:55:16;;;;;;;13.50;6.40;;;20.00;98.00;;;;;;5012597;28;20473;-68
2023/06/23 05:57:47;;;;;;;16.30;7.37;;;20.00;98.00;;;;;;5011974;28;20483;-67
2023/06/23 06:00:16;;;;;;;16.13;7.77;;;19.70;98.00;;;;;;5012314;28;20474;-67
2023/06/23 06:02:47;;;;;;;12.20;6.67;;;19.80;98.00;;;;;;5012252;28;20456;-67
2023/06/23 06:05:17;;;;;;;11.43;6.33;;;19.70;98.00;;;;;;5012267;28;20466;-67
2023/06/23 06:07:45;;;;;;;18.30;7.63;;;19.70;98.00;;;;;;5011866;28;20460;-67
2023/06/23 06:10:16;;;;;;;15.17;7.60;;;19.70;98.00;;;;;;5012199;28;20825;-68
2023/06/23 06:12:45;;;;;;;14.47;7.07;;;19.70;98.00;;;;;;5011823;28;20466;-66
2023/06/23 06:15:14;;;;;;;14.30;6.17;;;19.80;98.00;;;;;;5012051;28;20467;-61
2023/06/23 06:17:43;;;;;;;14.17;7.00;;;19.80;98.00;;;;;;5012120;28;20495;-68
2023/06/23 06:20:13;;;;;;;12.80;7.07;;;20.10;98.00;;;;;;5010739;28;20796;-65
2023/06/23 06:22:42;;;;;;;16.10;7.20;;;20.20;98.00;;;;;;5011996;28;20466;-64
2023/06/23 06:25:12;;;;;;;15.50;7.60;;;20.40;98.00;;;;;;5011950;28;20988;-65
2023/06/23 06:27:44;;;;;;;17.90;8.63;;;20.50;98.00;;;;;;5011801;28;20456;-65
2023/06/23 06:30:13;;;;;;;14.50;7.77;;;20.30;98.00;;;;;;5012296;28;20451;-64
2023/06/23 06:32:42;;;;;;;17.37;7.57;;;20.20;98.00;;;;;;5011823;28;20455;-63
2023/06/23 06:35:11;;;;;;;13.93;6.60;;;20.00;98.00;;;;;;5011857;28;20510;-63
2023/06/23 06:37:41;;;;;;;15.43;7.60;;;20.10;98.00;;;;;;5011675;28;20491;-63
2023/06/23 06:40:11;;;;;;;11.80;6.43;;;20.40;98.00;;;;;;5011696;28;21012;-63
2023/06/23 06:42:38;;;;;;;12.40;6.70;;;20.40;98.00;;;;;;5011691;28;20460;-62
2023/06/23 06:45:08;;;;;;;12.80;6.80;;;20.50;98.00;;;;;;5011723;28;20459;-62
2023/06/23 06:47:40;;;;;;;17.17;8.33;;;20.70;98.00;;;;;;5011316;28;20505;-63
2023/06/23 06:50:11;;;;;;;18.40;7.57;;;20.90;98.00;;;;;;5011756;28;20467;-62
2023/06/23 06:52:39;;;;;;;15.00;7.40;;;21.00;98.00;;;;;;5010760;28;20451;-64
2023/06/23 06:55:09;;;;;;;15.63;8.10;;;21.00;98.00;;;;;;5014200;28;20527;-62
2023/06/23 06:57:39;;;;;;;14.20;7.20;;;20.80;98.00;;;;;;5012060;28;20483;-68
2023/06/23 07:00:09;;;;;;;15.57;7.00;;;20.50;98.00;;;;;;5011160;28;20457;-67
2023/06/23 07:02:39;;;;;;;12.23;6.40;;;20.60;98.00;;;;;;5014110;28;20464;-70
2023/06/23 07:05:07;;;;;;;16.70;8.77;;;20.80;98.00;;;;;;5014750;28;20542;-69
2023/06/23 07:07:35;;;;;;;17.50;8.60;;;20.80;98.00;;;;;;5014880;28;20565;-69
2023/06/23 07:10:03;;;;;;;13.87;7.60;;;20.80;98.00;;;;;;5014808;28;20828;-69
2023/06/23 07:12:31;;;;;;;15.33;7.47;;;21.00;98.00;;;;;;5014772;28;20957;-68
2023/06/23 07:14:58;;;;;;;15.70;7.60;;;21.30;98.00;;;;;;5014750;28;20854;-71
2023/06/23 07:17:28;;;;;;;15.93;7.70;;;21.20;98.00;;;;;;5014529;28;20495;-63
2023/06/23 07:19:55;;;;;;;16.90;8.17;;;21.20;98.00;;;;;;5014525;28;20806;-62
2023/06/23 07:22:22;;;;;;;15.20;8.17;;;21.30;98.00;;;;;;5014475;28;20467;-62
2023/06/23 07:24:49;;;;;;;17.77;8.87;;;21.20;98.00;;;;;;5014639;28;20517;-63
2023/06/23 07:27:17;;;;;;;18.60;8.57;;;21.00;98.00;;;;;;5014418;28;20985;-64
2023/06/23 07:29:44;;;;;;;13.53;6.90;;;20.90;98.00;;;;;;5014680;28;20455;-62
2023/06/23 07:32:14;;;;;;;14.30;7.80;;;20.90;98.00;;;;;;5014150;28;20922;-63
2023/06/23 07:34:43;;;;;;;20.07;7.87;;;21.10;98.00;;;;;;5014611;28;20503;-62
2023/06/23 07:37:10;;;;;;;15.53;8.17;;;21.20;98.00;;;;;;5014432;28;20487;-63
2023/06/23 07:39:37;;;;;;;13.17;7.10;;;21.20;98.00;;;;;;5014381;28;20468;-64
2023/06/23 07:42:06;;;;;;;11.90;6.50;;;21.00;98.00;;;;;;5014422;28;20499;-62
2023/06/23 07:44:33;;;;;;;17.57;7.43;;;21.10;98.00;;;;;;5013282;28;20486;-63
2023/06/23 07:47:01;;;;;;;14.17;7.00;;;21.10;98.00;;;;;;5014355;28;20451;-63
2023/06/23 07:49:29;;;;;;;15.70;7.80;;;21.00;98.00;;;;;;5014261;28;20938;-63
2023/06/23 07:52:00;;;;;;;13.63;6.90;;;20.80;98.00;;;;;;5014109;28;20463;-63
2023/06/23 07:54:28;;;;;;;14.53;7.17;;;20.70;98.00;;;;;;5014332;28;20697;-62
2023/06/23 07:56:55;;;;;;;18.20;8.87;;;20.60;98.00;;;;;;5014088;28;20545;-61
2023/06/23 07:59:22;;;;;;;13.77;6.60;;;20.60;98.00;;;;;;5013768;28;20460;-62
2023/06/23 08:01:49;;;;;;;14.93;7.90;;;20.60;98.00;;;;;;5013687;28;20463;-65
2023/06/23 08:04:16;;;;;;;17.37;7.67;;;20.80;98.00;;;;;;5013724;28;20937;-64
2023/06/23 08:06:43;;;;;;;15.57;7.20;;;20.80;98.00;;;;;;5013686;28;20455;-65
2023/06/23 08:09:12;;;;;;;12.90;6.20;;;20.90;98.00;;;;;;5013447;28;20455;-64
2023/06/23 08:11:39;;;;;;;19.30;7.57;;;20.80;98.00;;;;;;5013356;28;20470;-64
2023/06/23 08:14:07;;;;;;;14.70;7.33;;;20.80;98.00;;;;;;5013511;28;20467;-63
2023/06/23 08:16:34;;;;;;;14.80;7.27;;;20.70;98.00;;;;;;5013466;28;20480;-64
2023/06/23 08:19:01;;;;;;;18.73;7.97;;;20.80;98.00;;;;;;5013596;28;21016;-65
2023/06/23 08:21:31;;;;;;;17.07;7.30;;;20.70;98.00;;;;;;5013469;28;20467;-64
2023/06/23 08:23:58;;;;;;;14.00;6.90;;;20.70;98.00;;;;;;5012701;28;20491;-65
2023/06/23 08:26:26;;;;;;;13.53;7.43;;;20.70;98.00;;;;;;5013161;28;20471;-64
2023/06/23 08:28:53;;;;;;;14.27;6.30;;;20.90;98.00;;;;;;5013233;28;20467;-64
2023/06/23 08:31:20;;;;;;;14.80;7.20;;;20.90;98.00;;;;;;5013343;28;20992;-66
2023/06/23 08:33:47;;;;;;;13.37;6.90;;;20.90;98.00;;;;;;5013713;28;20467;-63
2023/06/23 08:36:14;;;;;;;12.90;7.00;;;21.00;98.00;;;;;;5013151;28;20466;-64
2023/06/23 08:38:41;;;;;;;15.50;7.17;;;21.30;98.00;;;;;;5013145;28;20865;-64
2023/06/23 08:41:10;;;;;;;11.70;6.47;;;21.50;98.00;;;;;;5012425;28;20459;-64
2023/06/23 08:43:44;;;;;;;15.30;7.60;;;21.70;98.00;;;;;;5011262;28;20460;-64
2023/06/23 08:46:14;;;;;;;13.30;6.37;;;21.90;98.00;;;;;;5012797;28;20452;-66
2023/06/23 08:48:46;;;;;;;11.30;6.03;;;21.90;98.00;;;;;;5013311;28;20978;-64
2023/06/23 08:51:15;;;;;;;11.47;6.50;;;21.90;98.00;;;;;;5012325;28;20487;-64
2023/06/23 08:53:43;;;;;;;15.50;7.70;;;22.00;98.00;;;;;;5013135;28;20518;-66
2023/06/23 08:56:11;;;;;;;13.97;7.03;;;22.10;98.00;;;;;;5012623;28;20517;-67
2023/06/23 08:58:40;;;;;;;12.20;6.30;;;22.00;98.00;;;;;;5012827;28;20491;-67
2023/06/23 09:01:07;;;;;;;11.17;6.17;;;22.10;98.00;;;;;;5012764;28;20456;-67
2023/06/23 09:03:36;;;;;;;9.57;5.83;;;22.20;98.00;;;;;;5012742;28;20455;-66
2023/06/23 09:06:03;;;;;;;13.17;6.63;;;22.30;98.00;;;;;;5012423;28;20463;-67
2023/06/23 09:08:31;;;;;;;10.27;6.03;;;22.60;98.00;;;;;;5011660;28;20456;-66
2023/06/23 09:10:58;;;;;;;10.77;6.00;;;22.90;98.00;;;;;;5012788;28;20958;-67
2023/06/23 09:13:30;;;;;;;10.50;5.60;;;23.00;98.00;;;;;;5013023;28;20447;-67
2023/06/23 09:16:00;;;;;;;12.23;6.40;;;23.20;98.00;;;;;;5012935;28;20459;-67
2023/06/23 09:18:28;;;;;;;13.87;7.20;;;23.10;98.00;;;;;;5012415;28;20488;-67
2023/06/23 09:20:55;;;;;;;14.33;6.40;;;22.90;98.00;;;;;;5012732;28;21080;-67
2023/06/23 09:23:24;;;;;;;9.70;5.57;;;22.80;98.00;;;;;;5012094;28;20499;-68
2023/06/23 09:25:53;;;;;;;8.70;5.10;;;22.80;98.00;;;;;;5010915;28;20460;-68
2023/06/23 09:28:27;;;;;;;22.93;6.50;;;22.90;98.00;;;;;;5012618;28;20455;-67
2023/06/23 09:30:56;;;;;;;11.00;5.00;;;23.00;98.00;;;;;;5012562;28;20549;-67
2023/06/23 09:33:26;;;;;;;10.53;5.50;;;22.90;98.00;;;;;;5011655;28;20471;-68
2023/06/23 09:35:56;;;;;;;7.80;5.20;;;22.90;98.00;;;;;;5012492;28;20470;-68
2023/06/23 09:38:24;;;;;;;9.87;5.37;;;23.10;98.00;;;;;;5012303;28;20487;-69
2023/06/23 09:41:03;;;;;;;12.73;6.60;;;23.20;98.00;;;;;;5012611;28;20463;-68
2023/06/23 09:43:30;;;;;;;9.80;5.30;;;23.00;98.00;;;;;;5012477;28;20480;-67
2023/06/23 09:45:57;;;;;;;11.23;5.90;;;22.90;98.00;;;;;;5012675;28;20479;-68
2023/06/23 09:48:29;;;;;;;11.07;6.37;;;23.10;98.00;;;;;;5012533;28;20458;-67
2023/06/23 09:51:03;;;;;;;11.70;5.87;;;23.10;98.00;;;;;;5012539;28;20455;-67
2023/06/23 09:53:33;;;;;;;13.73;6.07;;;23.00;98.00;;;;;;5011072;28;20451;-67
2023/06/23 09:56:03;;;;;;;11.50;5.90;;;22.90;98.00;;;;;;5012258;28;20541;-68
2023/06/23 09:58:32;;;;;;;7.90;4.67;;;23.00;98.00;;;;;;5012071;28;20501;-66
2023/06/23 10:01:04;;;;;;;9.10;4.80;;;23.00;98.00;;;;;;5012276;28;20542;-67
2023/06/23 10:03:33;;;;;;;9.83;5.37;;;23.30;98.00;;;;;;5011943;28;20452;-67
2023/06/23 10:06:00;;;;;;;8.20;5.07;;;23.50;98.00;;;;;;5012099;28;20859;-67
2023/06/23 10:08:28;;;;;;;12.20;5.13;;;23.60;98.00;;;;;;5011955;28;20466;-67
2023/06/23 10:10:55;;;;;;;10.27;5.53;;;23.70;98.00;;;;;;5011964;28;20462;-68
2023/06/23 10:13:23;;;;;;;10.10;5.50;;;23.50;98.00;;;;;;5012086;28;20491;-68
2023/06/23 10:15:51;;;;;;;8.03;4.80;;;23.30;98.00;;;;;;5010749;28;20566;-68
2023/06/23 10:18:19;;;;;;;14.00;6.10;;;23.30;98.00;;;;;;5012209;28;20514;-67
2023/06/23 10:20:48;;;;;;;9.43;5.50;;;23.40;98.00;;;;;;5012126;28;20460;-67
2023/06/23 10:23:16;;;;;;;13.03;5.10;;;23.50;98.00;;;;;;5011594;28;20938;-67
2023/06/23 10:25:46;;;;;;;11.33;5.00;;;23.60;98.00;;;;;;5011941;28;20466;-69
2023/06/23 10:28:17;;;;;;;9.20;4.77;;;23.80;97.70;;;;;;5011838;28;20482;-65
2023/06/23 10:30:44;;;;;;;8.57;4.63;;;24.00;98.00;;;;;;5011744;28;20510;-64
2023/06/23 10:33:19;;;;;;;9.60;5.10;;;24.10;98.00;;;;;;5010042;28;21017;-66
2023/06/23 10:35:48;;;;;;;12.60;5.03;;;24.40;97.30;;;;;;5011717;28;20995;-66
2023/06/23 10:38:21;;;;;;;8.00;4.90;;;24.70;96.30;;;;;;5014710;28;20907;-65
2023/06/23 10:40:51;;;;;;;10.50;5.27;;;24.50;96.00;;;;;;5014959;28;20521;-66
2023/06/23 10:43:20;;;;;;;8.80;5.40;;;24.10;96.30;;;;;;5015027;28;20459;-66
2023/06/23 10:45:49;;;;;;;8.70;4.57;;;23.90;97.60;;;;;;5015003;28;20486;-65
2023/06/23 10:48:16;;;;;;;6.63;4.40;;;23.60;96.90;;;;;;5014870;28;20495;-65
2023/06/23 10:50:43;;;;;;;8.73;5.07;;;23.50;97.60;;;;;;5014738;28;20462;-65
2023/06/23 10:53:16;;;;;;;9.23;4.63;;;23.40;98.00;;;;;;5013504;28;20459;-63
2023/06/23 10:55:45;;;;;;;7.73;4.90;;;23.40;98.00;;;;;;5014472;28;20514;-67
2023/06/23 10:58:16;;;;;;;8.43;5.07;;;23.60;98.00;;;;;;5014565;28;20483;-68
2023/06/23 11:00:57;;;;;;;10.30;5.30;;;23.70;98.00;;;;;;5014611;28;20795;-69
2023/06/23 11:03:33;;;;;;;10.10;4.97;;;23.80;98.00;;;;;;5014358;28;20474;-64
2023/06/23 11:06:01;;;;;;;9.17;5.50;;;24.30;98.00;;;;;;5014281;28;20501;-66
2023/06/23 11:08:35;;;;;;;11.10;5.33;;;24.90;96.80;;;;;;5014235;28;20486;-63
2023/06/23 11:11:05;;;;;;;7.47;4.63;;;25.00;96.20;;;;;;5014304;28;20451;-66
2023/06/23 11:13:37;;;;;;;10.27;5.43;;;24.90;95.90;;;;;;5014146;28;20456;-64
2023/06/23 11:16:05;;;;;;;11.10;5.27;;;24.80;96.30;;;;;;5014172;28;20456;-65
2023/06/23 11:18:32;;;;;;;8.10;5.20;;;24.70;95.20;;;;;;5014043;28;20487;-64
2023/06/23 11:21:15;;;;;;;11.33;4.80;;;24.40;94.50;;;;;;5014089;28;20459;-64
2023/06/23 11:24:11;;;;;;;7.13;4.30;;;24.70;94.50;;;;;;5014137;28;20824;-63
2023/06/23 11:26:46;;;;;;;6.20;4.20;;;25.00;94.20;;;;;;5014160;28;20451;-64
2023/06/23 11:29:18;;;;;;;8.00;4.47;;;25.50;93.30;;;;;;5012929;28;20451;-64
2023/06/23 11:32:07;;;;;;;8.87;5.00;;;25.80;91.30;;;;;;5014163;28;20459;-64
2023/06/23 11:34:52;;;;;;;6.30;3.90;;;26.30;90.80;;;;;;5014437;28;20455;-65
2023/06/23 11:37:20;;;;;;;9.17;5.40;;;26.30;90.00;;;;;;5014238;28;20459;-64
2023/06/23 11:39:49;;;;;;;6.07;3.93;;;26.80;88.50;;;;;;5014345;28;20903;-64
2023/06/23 11:42:16;;;;;;;7.57;4.97;;;26.70;89.50;;;;;;5012868;28;20452;-65
2023/06/23 11:44:43;;;;;;;8.90;4.90;;;26.50;89.90;;;;;;5013664;28;20467;-66
2023/06/23 11:47:10;;;;;;;9.90;5.30;;;26.10;90.60;;;;;;5012845;28;20463;-64
2023/06/23 11:49:37;;;;;;;8.83;5.13;;;26.00;92.00;;;;;;5013649;28;20482;-65
2023/06/23 11:52:05;;;;;;;9.27;5.13;;;26.30;91.00;;;;;;5012268;28;20792;-65
2023/06/23 11:54:35;;;;;;;7.77;4.40;;;26.40;90.60;;;;;;5012197;28;20826;-63
2023/06/23 11:57:05;;;;;;;7.90;4.57;;;26.60;88.10;;;;;;5013440;28;20455;-64
2023/06/23 11:59:36;;;;;;;7.03;4.00;;;26.60;89.30;;;;;;5013401;28;20491;-65
2023/06/23 12:02:04;;;;;;;7.70;4.47;;;27.00;89.00;;;;;;5012015;28;21064;-65
2023/06/23 12:04:32;;;;;;;11.83;4.73;;;26.50;88.70;;;;;;5013222;28;20553;-67
2023/06/23 12:07:00;;;;;;;7.60;4.47;;;26.00;89.40;;;;;;5013115;28;20558;-65
2023/06/23 12:09:27;;;;;;;6.20;4.03;;;25.70;90.70;;;;;;5013237;28;20452;-66
2023/06/23 12:11:55;;;;;;;6.30;4.00;;;25.60;89.50;;;;;;5013106;28;20451;-65
2023/06/23 12:14:30;;;;;;;6.43;3.87;;;25.70;88.50;;;;;;5013139;28;20459;-65
2023/06/23 12:17:12;;;;;;;6.17;4.20;;;26.00;89.30;;;;;;5013076;28;20455;-66
2023/06/23 12:19:41;;;;;;;7.50;4.30;;;26.10;89.80;;;;;;5009434;28;20905;-65
2023/06/23 12:22:16;;;;;;;6.37;4.00;;;26.00;89.20;;;;;;5012981;28;20459;-67
2023/06/23 12:24:43;;;;;;;5.83;3.70;;;25.90;86.60;;;;;;5012907;28;20455;-67
2023/06/23 12:27:11;;;;;;;5.33;3.60;;;26.00;86.50;;;;;;5012917;28;20455;-67
2023/06/23 12:29:39;;;;;;;8.10;4.60;;;26.40;86.70;;;;;;5013041;28;20870;-67
2023/06/23 12:32:07;;;;;;;7.23;4.23;;;26.90;86.10;;;;;;5013154;28;20467;-67
2023/06/23 12:34:37;;;;;;;6.50;4.00;;;27.10;83.40;;;;;;5012913;28;20459;-65
2023/06/23 12:37:05;;;;;;;5.30;3.53;;;27.20;84.50;;;;;;5012833;28;20885;-66
2023/06/23 12:39:33;;;;;;;6.57;3.60;;;27.60;82.90;;;;;;5012663;28;20506;-65
2023/06/23 12:42:01;;;;;;;5.70;3.60;;;27.70;80.70;;;;;;5012696;28;20515;-64
2023/06/23 12:44:30;;;;;;;5.50;3.30;;;27.60;81.60;;;;;;5012550;28;20460;-65
2023/06/23 12:47:01;;;;;;;4.40;3.10;;;27.20;81.20;;;;;;5012513;28;20514;-65
2023/06/23 12:49:32;;;;;;;6.87;3.60;;;26.80;82.70;;;;;;5012850;28;20467;-64
2023/06/23 12:52:00;;;;;;;7.97;4.07;;;26.50;84.20;;;;;;5012622;28;20456;-65
2023/06/23 12:54:27;;;;;;;6.03;3.60;;;26.40;85.50;;;;;;5012505;28;20460;-65
2023/06/23 12:57:00;;;;;;;5.30;3.33;;;27.00;85.80;;;;;;5012284;28;20454;-64